createdAt,value
2019-03-09T00:00:42.914Z,100169.20
2019-03-09T00:01:48.487Z,100169.20
2019-03-09T00:02:50.693Z,100169.20
2019-03-09T00:03:52.934Z,100162.68
2019-03-09T00:04:55.216Z,100166.20
2019-03-09T00:05:57.496Z,100161.90
2019-03-09T00:06:59.715Z,100163.20
2019-03-09T00:08:01.927Z,100153.56
2019-03-09T00:09:04.364Z,100152.77
2019-03-09T00:10:06.553Z,100149.78
2019-03-09T00:11:08.757Z,100145.34
2019-03-09T00:12:10.971Z,100138.05
2019-03-09T00:13:13.169Z,100139.36
2019-03-09T00:14:15.399Z,100136.75
2019-03-09T00:15:17.668Z,100133.23
2019-03-09T00:16:19.909Z,100129.84
2019-03-09T00:17:24.642Z,100126.32
2019-03-09T00:18:26.850Z,100119.41
2019-03-09T00:19:29.097Z,100115.77
2019-03-09T00:20:31.304Z,100118.89
2019-03-09T00:21:33.539Z,100111.47
2019-03-09T00:22:35.750Z,100111.47
2019-03-09T00:24:06.305Z,100113.16
2019-03-09T00:25:17.801Z,100109.25
2019-03-09T00:26:48.071Z,100096.62
2019-03-09T00:27:55.322Z,100097.92
2019-03-09T00:29:03.211Z,100092.97
2019-03-09T00:30:36.533Z,100085.67
2019-03-09T00:31:43.764Z,100090.89
2019-03-09T00:32:45.965Z,100079.94
2019-03-09T00:33:48.159Z,100077.73
2019-03-09T00:34:50.352Z,100071.21
2019-03-09T00:35:52.596Z,100078.52
2019-03-09T00:36:54.807Z,100071.61
2019-03-09T00:37:57.016Z,100074.73
2019-03-09T00:39:01.555Z,100068.09
2019-03-09T00:40:04.078Z,100063.27
2019-03-09T00:41:06.322Z,100064.58
2019-03-09T00:42:08.560Z,100064.58
2019-03-09T00:43:10.775Z,100065.48
2019-03-09T00:44:12.994Z,100059.36
2019-03-09T00:45:15.180Z,100060.27
2019-03-09T00:46:17.544Z,100050.24
2019-03-09T00:47:19.734Z,100058.45
2019-03-09T00:48:21.956Z,100056.36
2019-03-09T00:49:24.155Z,100049.33
2019-03-09T00:50:26.352Z,100048.94
2019-03-09T00:51:28.628Z,100046.33
2019-03-09T00:52:31.127Z,100041.91
2019-03-09T00:53:33.342Z,100038.91
2019-03-09T00:54:35.539Z,100038.91
2019-03-09T00:55:37.741Z,100036.30
2019-03-09T00:56:40.001Z,100035.78
2019-03-09T00:57:42.202Z,100027.57
2019-03-09T00:58:44.422Z,100025.88
2019-03-09T00:59:46.648Z,100021.05
2019-03-09T01:00:48.865Z,100018.45
2019-03-09T01:01:51.110Z,100016.63
2019-03-09T01:02:53.318Z,100011.42
2019-03-09T01:03:55.516Z,100019.23
2019-03-09T01:04:57.743Z,100017.94
2019-03-09T01:05:59.952Z,100014.02
2019-03-09T01:07:02.193Z,100014.02
2019-03-09T01:08:04.408Z,100014.55
2019-03-09T01:09:06.611Z,100009.20
2019-03-09T01:10:08.825Z,100006.59
2019-03-09T01:11:11.031Z,100005.30
2019-03-09T01:12:13.244Z,99997.84
2019-03-09T01:13:15.462Z,100004.13
2019-03-09T01:14:17.664Z,99994.88
2019-03-09T01:15:19.859Z,99993.02
2019-03-09T01:16:22.111Z,99984.81
2019-03-09T01:17:24.298Z,99977.78
2019-03-09T01:18:26.499Z,99980.91
2019-03-09T01:19:28.714Z,99971.27
2019-03-09T01:20:30.913Z,99970.87
2019-03-09T01:21:33.136Z,99966.96
2019-03-09T01:22:35.367Z,99961.75
2019-03-09T01:23:37.561Z,99963.84
2019-03-09T01:24:39.747Z,99959.54
2019-03-09T01:25:41.954Z,99956.54
2019-03-09T01:26:44.171Z,99945.60
2019-03-09T01:27:46.398Z,99945.60
2019-03-09T01:28:48.639Z,99943.91
2019-03-09T01:29:51.032Z,99938.69
2019-03-09T01:30:53.234Z,99938.30
2019-03-09T01:31:55.438Z,99936.60
2019-03-09T01:32:57.654Z,99923.45
2019-03-09T01:33:59.856Z,99926.06
2019-03-09T01:35:02.065Z,99919.55
2019-03-09T01:36:04.267Z,99917.45
2019-03-09T01:37:06.508Z,99909.13
2019-03-09T01:38:08.755Z,99908.73
2019-03-09T01:39:10.947Z,99902.61
2019-03-09T01:40:13.150Z,99900.00
2019-03-09T01:41:15.355Z,99901.30
2019-03-09T01:42:17.556Z,99899.48
2019-03-09T01:43:19.776Z,99891.67
2019-03-09T01:44:21.970Z,99888.67
2019-03-09T01:45:24.163Z,99881.64
2019-03-09T01:46:26.360Z,99878.25
2019-03-09T01:47:28.576Z,99876.95
2019-03-09T01:48:30.796Z,99861.70
2019-03-09T01:49:33.007Z,99865.09
2019-03-09T01:50:35.197Z,99861.19
2019-03-09T01:51:37.397Z,99856.89
2019-03-09T01:52:39.595Z,99854.80
2019-03-09T01:53:41.813Z,99855.19
2019-03-09T01:54:44.014Z,99860.41
2019-03-09T01:55:46.204Z,99846.98
2019-03-09T01:56:48.418Z,99846.98
2019-03-09T01:57:50.610Z,99843.47
2019-03-09T01:58:52.824Z,99844.38
2019-03-09T01:59:55.030Z,99830.95
2019-03-09T02:00:57.241Z,99831.34
2019-03-09T02:01:59.428Z,99824.05
2019-03-09T02:03:01.635Z,99815.32
2019-03-09T02:04:03.829Z,99821.84
2019-03-09T02:05:06.235Z,99809.33
2019-03-09T02:06:08.436Z,99808.41
2019-03-09T02:07:10.661Z,99810.23
2019-03-09T02:08:12.849Z,99802.57
2019-03-09T02:09:15.074Z,99801.66
2019-03-09T02:10:17.276Z,99793.84
2019-03-09T02:11:19.502Z,99789.94
2019-03-09T02:12:21.699Z,99782.52
2019-03-09T02:13:23.904Z,99783.94
2019-03-09T02:14:26.128Z,99779.63
2019-03-09T02:15:28.340Z,99777.03
2019-03-09T02:16:30.527Z,99770.12
2019-03-09T02:17:32.734Z,99770.52
2019-03-09T02:18:34.930Z,99764.39
2019-03-09T02:19:37.154Z,99759.70
2019-03-09T02:20:39.356Z,99755.78
2019-03-09T02:21:43.272Z,99748.87
2019-03-09T02:22:45.474Z,99743.27
2019-03-09T02:23:47.679Z,99737.66
2019-03-09T02:24:49.885Z,99736.75
2019-03-09T02:25:52.078Z,99731.55
2019-03-09T02:26:54.276Z,99731.16
2019-03-09T02:27:56.482Z,99724.64
2019-03-09T02:29:04.573Z,99716.82
2019-03-09T02:30:06.771Z,99713.30
2019-03-09T02:31:08.974Z,99707.70
2019-03-09T02:32:11.194Z,99696.37
2019-03-09T02:33:13.385Z,99691.67
2019-03-09T02:34:15.606Z,99687.25
2019-03-09T02:35:17.827Z,99680.84
2019-03-09T02:36:20.016Z,99676.94
2019-03-09T02:37:22.233Z,99669.91
2019-03-09T02:38:35.998Z,99667.03
2019-03-09T02:39:46.260Z,99664.70
2019-03-09T02:40:48.473Z,99656.48
2019-03-09T02:41:50.657Z,99661.82
2019-03-09T02:42:52.848Z,99649.19
2019-03-09T02:43:55.064Z,99652.19
2019-03-09T02:44:57.288Z,99642.67
2019-03-09T02:45:59.487Z,99641.37
2019-03-09T02:47:01.702Z,99640.58
2019-03-09T02:48:06.663Z,99637.06
2019-03-09T02:49:08.884Z,99634.85
2019-03-09T02:50:11.084Z,99634.58
2019-03-09T02:51:13.273Z,99623.24
2019-03-09T02:52:15.483Z,99626.25
2019-03-09T02:53:17.698Z,99621.94
2019-03-09T02:54:19.917Z,99617.63
2019-03-09T02:55:22.145Z,99612.03
2019-03-09T02:56:24.342Z,99605.91
2019-03-09T02:57:26.544Z,99599.91
2019-03-09T02:58:28.754Z,99597.19
2019-03-09T02:59:30.968Z,99589.37
2019-03-09T03:00:41.931Z,99584.55
2019-03-09T03:01:52.470Z,99587.67
2019-03-09T03:02:57.773Z,99585.45
2019-03-09T03:03:59.986Z,99576.84
2019-03-09T03:05:02.215Z,99577.75
2019-03-09T03:06:04.415Z,99571.64
2019-03-09T03:07:09.549Z,99568.63
2019-03-09T03:08:11.748Z,99566.03
2019-03-09T03:09:13.971Z,99566.94
2019-03-09T03:10:16.199Z,99562.63
2019-03-09T03:11:18.419Z,99555.32
2019-03-09T03:12:20.616Z,99560.53
2019-03-09T03:13:22.831Z,99541.27
2019-03-09T03:14:25.063Z,99544.39
2019-03-09T03:15:27.266Z,99546.20
2019-03-09T03:16:29.479Z,99537.88
2019-03-09T03:17:31.680Z,99542.30
2019-03-09T03:18:33.874Z,99537.98
2019-03-09T03:19:36.093Z,99528.36
2019-03-09T03:20:38.404Z,99524.45
2019-03-09T03:21:40.595Z,99526.66
2019-03-09T03:22:42.802Z,99518.44
2019-03-09T03:23:45.023Z,99516.63
2019-03-09T03:24:47.235Z,99516.23
2019-03-09T03:25:49.435Z,99510.63
2019-03-09T03:26:51.637Z,99501.91
2019-03-09T03:27:53.906Z,99499.30
2019-03-09T03:28:56.102Z,99499.19
2019-03-09T03:29:58.357Z,99496.19
2019-03-09T03:31:00.571Z,99495.67
2019-03-09T03:32:02.748Z,99478.73
2019-03-09T03:33:04.952Z,99486.16
2019-03-09T03:34:07.174Z,99480.95
2019-03-09T03:35:09.377Z,99475.73
2019-03-09T03:36:11.597Z,99468.70
2019-03-09T03:37:13.800Z,99473.52
2019-03-09T03:38:15.987Z,99469.50
2019-03-09T03:39:18.181Z,99459.08
2019-03-09T03:40:20.394Z,99454.27
2019-03-09T03:41:22.591Z,99451.27
2019-03-09T03:42:24.791Z,99439.54
2019-03-09T03:43:27.193Z,99436.42
2019-03-09T03:44:29.407Z,99438.13
2019-03-09T03:45:31.626Z,99438.63
2019-03-09T03:46:33.831Z,99432.91
2019-03-09T03:47:38.498Z,99427.30
2019-03-09T03:48:40.700Z,99429.91
2019-03-09T03:49:42.896Z,99412.58
2019-03-09T03:50:49.587Z,99413.77
2019-03-09T03:51:51.798Z,99410.77
2019-03-09T03:52:54.001Z,99400.73
2019-03-09T03:53:56.221Z,99396.83
2019-03-09T03:54:58.440Z,99398.53
2019-03-09T03:56:00.656Z,99399.44
2019-03-09T03:57:02.885Z,99394.23
2019-03-09T03:58:05.063Z,99384.20
2019-03-09T03:59:08.377Z,99376.78
2019-03-09T04:00:10.603Z,99370.67
2019-03-09T04:01:12.806Z,99365.86
2019-03-09T04:02:15.026Z,99351.52
2019-03-09T04:03:17.216Z,99355.94
2019-03-09T04:04:19.432Z,99352.03
2019-03-09T04:05:21.682Z,99344.22
2019-03-09T04:06:23.886Z,99339.41
2019-03-09T04:07:26.089Z,99339.00
2019-03-09T04:08:28.306Z,99339.80
2019-03-09T04:09:30.484Z,99331.98
2019-03-09T04:10:32.681Z,99330.28
2019-03-09T04:11:34.894Z,99324.17
2019-03-09T04:12:37.110Z,99338.09
2019-03-09T04:13:39.306Z,99336.40
2019-03-09T04:14:41.512Z,99336.80
2019-03-09T04:15:43.918Z,99337.70
2019-03-09T04:16:46.181Z,99339.51
2019-03-09T04:17:48.397Z,99336.91
2019-03-09T04:18:53.082Z,99336.91
2019-03-09T04:19:55.274Z,99326.08
2019-03-09T04:21:01.845Z,99317.36
2019-03-09T04:22:03.060Z,99323.88
2019-03-09T04:23:05.282Z,99320.48
2019-03-09T04:24:07.490Z,99312.16
2019-03-09T04:25:09.707Z,99309.14
2019-03-09T04:26:12.075Z,99309.55
2019-03-09T04:27:14.287Z,99297.42
2019-03-09T04:28:16.487Z,99299.63
2019-03-09T04:29:18.684Z,99290.52
2019-03-09T04:30:20.904Z,99291.30
2019-03-09T04:31:23.106Z,99281.39
2019-03-09T04:32:25.314Z,99276.58
2019-03-09T04:33:27.520Z,99284.50
2019-03-09T04:34:29.720Z,99271.88
2019-03-09T04:35:31.950Z,99277.08
2019-03-09T04:36:36.221Z,99275.78
2019-03-09T04:37:38.558Z,99270.57
2019-03-09T04:38:43.282Z,99267.97
2019-03-09T04:39:47.786Z,99264.45
2019-03-09T04:40:49.999Z,99266.27
2019-03-09T04:41:52.206Z,99265.86
2019-03-09T04:42:54.418Z,99258.84
2019-03-09T04:43:56.622Z,99273.68
2019-03-09T04:44:58.822Z,99263.26
2019-03-09T04:46:01.031Z,99264.06
2019-03-09T04:47:05.956Z,99258.45
2019-03-09T04:48:08.170Z,99261.56
2019-03-09T04:49:10.386Z,99264.96
2019-03-09T04:50:12.973Z,99262.36
2019-03-09T04:51:15.185Z,99257.14
2019-03-09T04:52:17.462Z,99261.56
2019-03-09T04:53:19.682Z,99254.94
2019-03-09T04:54:21.889Z,99256.74
2019-03-09T04:55:24.254Z,99241.11
2019-03-09T04:56:26.464Z,99256.74
2019-03-09T04:57:28.683Z,99253.74
2019-03-09T04:58:30.882Z,99257.25
2019-03-09T04:59:33.182Z,99258.55
2019-03-09T05:00:35.398Z,99255.05
2019-03-09T05:01:37.638Z,99251.14
2019-03-09T05:02:39.950Z,99258.16
2019-03-09T05:03:42.154Z,99262.46
2019-03-09T05:04:44.372Z,99230.80
2019-03-09T05:05:46.591Z,99239.01
2019-03-09T05:06:48.882Z,99237.70
2019-03-09T05:07:51.091Z,99242.92
2019-03-09T05:08:53.282Z,99239.12
2019-03-09T05:09:55.481Z,99247.73
2019-03-09T05:10:57.701Z,99246.03
2019-03-09T05:11:59.892Z,99241.72
2019-03-09T05:13:02.107Z,99242.52
2019-03-09T05:14:04.530Z,99233.00
2019-03-09T05:15:06.713Z,99237.81
2019-03-09T05:16:08.940Z,99228.59
2019-03-09T05:17:11.143Z,99242.62
2019-03-09T05:18:13.336Z,99243.53
2019-03-09T05:19:15.546Z,99242.23
2019-03-09T05:20:19.364Z,99232.60
2019-03-09T05:21:21.599Z,99242.12
2019-03-09T05:22:23.819Z,99233.91
2019-03-09T05:23:26.019Z,99234.81
2019-03-09T05:24:28.228Z,99235.71
2019-03-09T05:25:30.435Z,99233.91
2019-03-09T05:26:32.654Z,99234.81
2019-03-09T05:27:34.851Z,99235.71
2019-03-09T05:28:37.044Z,99234.91
2019-03-09T05:29:39.257Z,99233.61
2019-03-09T05:30:41.467Z,99241.06
2019-03-09T05:31:43.675Z,99249.78
2019-03-09T05:32:45.866Z,99245.08
2019-03-09T05:33:48.055Z,99236.06
2019-03-09T05:34:50.291Z,99228.25
2019-03-09T05:35:52.456Z,99233.56
2019-03-09T05:36:54.659Z,99234.97
2019-03-09T05:37:56.849Z,99231.17
2019-03-09T05:38:59.258Z,99236.48
2019-03-09T05:40:01.468Z,99234.88
2019-03-09T05:41:03.677Z,99231.48
2019-03-09T05:42:05.893Z,99243.34
2019-03-09T05:43:08.089Z,99243.45
2019-03-09T05:44:10.391Z,99240.05
2019-03-09T05:45:12.599Z,99259.70
2019-03-09T05:46:14.829Z,99245.47
2019-03-09T05:47:17.042Z,99253.39
2019-03-09T05:48:19.253Z,99240.76
2019-03-09T05:49:21.451Z,99249.19
2019-03-09T05:50:23.660Z,99247.09
2019-03-09T05:51:25.903Z,99244.48
2019-03-09T05:52:28.143Z,99245.38
2019-03-09T05:53:30.339Z,99244.98
2019-03-09T05:54:32.535Z,99242.38
2019-03-09T05:55:34.749Z,99251.14
2019-03-09T05:56:36.977Z,99240.70
2019-03-09T05:57:39.285Z,99245.92
2019-03-09T05:58:41.474Z,99244.98
2019-03-09T05:59:43.678Z,99238.10
2019-03-09T06:00:45.919Z,99240.31
2019-03-09T06:01:48.099Z,99248.13
2019-03-09T06:02:50.299Z,99224.66
2019-03-09T06:03:52.497Z,99248.89
2019-03-09T06:04:54.703Z,99253.20
2019-03-09T06:05:56.935Z,99243.68
2019-03-09T06:06:59.142Z,99257.66
2019-03-09T06:08:01.368Z,99251.90
2019-03-09T06:09:04.054Z,99247.59
2019-03-09T06:10:06.275Z,99271.45
2019-03-09T06:11:08.485Z,99274.45
2019-03-09T06:12:10.713Z,99286.59
2019-03-09T06:13:12.917Z,99279.17
2019-03-09T06:14:15.129Z,99261.32
2019-03-09T06:15:17.323Z,99274.75
2019-03-09T06:16:19.519Z,99278.66
2019-03-09T06:17:21.719Z,99275.55
2019-03-09T06:18:23.912Z,99285.47
2019-03-09T06:19:26.119Z,99278.95
2019-03-09T06:20:28.328Z,99281.06
2019-03-09T06:21:30.539Z,99277.15
2019-03-09T06:22:32.755Z,99281.86
2019-03-09T06:23:34.955Z,99275.34
2019-03-09T06:24:37.178Z,99290.58
2019-03-09T06:25:39.398Z,99278.75
2019-03-09T06:26:43.198Z,99260.10
2019-03-09T06:27:45.395Z,99280.84
2019-03-09T06:28:47.626Z,99284.75
2019-03-09T06:29:49.972Z,99296.48
2019-03-09T06:30:52.173Z,99290.77
2019-03-09T06:31:54.400Z,99293.38
2019-03-09T06:32:56.610Z,99281.65
2019-03-09T06:34:01.535Z,99285.95
2019-03-09T06:35:06.536Z,99300.29
2019-03-09T06:36:08.744Z,99307.20
2019-03-09T06:37:10.951Z,99313.22
2019-03-09T06:38:13.166Z,99320.64
2019-03-09T06:39:15.354Z,99326.35
2019-03-09T06:40:17.580Z,99332.77
2019-03-09T06:41:19.881Z,99313.72
2019-03-09T06:42:22.108Z,99311.91
2019-03-09T06:43:24.290Z,99318.42
2019-03-09T06:44:26.495Z,99331.06
2019-03-09T06:45:28.692Z,99316.98
2019-03-09T06:46:30.902Z,99326.25
2019-03-09T06:47:33.128Z,99328.31
2019-03-09T06:48:35.338Z,99323.90
2019-03-09T06:49:37.675Z,99335.63
2019-03-09T06:50:39.887Z,99340.44
2019-03-09T06:51:42.098Z,99343.45
2019-03-09T06:52:44.332Z,99339.53
2019-03-09T06:53:46.544Z,99336.93
2019-03-09T06:54:48.745Z,99331.21
2019-03-09T06:55:50.950Z,99326.40
2019-03-09T06:56:53.148Z,99344.64
2019-03-09T06:57:55.378Z,99337.73
2019-03-09T06:58:57.867Z,99339.83
2019-03-09T07:00:00.133Z,99336.83
2019-03-09T07:01:02.391Z,99341.64
2019-03-09T07:02:04.598Z,99348.55
2019-03-09T07:03:06.813Z,99352.06
2019-03-09T07:04:09.021Z,99354.67
2019-03-09T07:05:11.219Z,99353.77
2019-03-09T07:06:13.438Z,99363.28
2019-03-09T07:07:16.852Z,99365.09
2019-03-09T07:08:19.098Z,99360.28
2019-03-09T07:09:21.302Z,99364.19
2019-03-09T07:10:23.509Z,99364.59
2019-03-09T07:11:25.754Z,99360.68
2019-03-09T07:12:27.925Z,99358.47
2019-03-09T07:13:30.148Z,99362.78
2019-03-09T07:14:32.377Z,99361.88
2019-03-09T07:15:34.558Z,99353.66
2019-03-09T07:16:36.754Z,99354.95
2019-03-09T07:17:38.964Z,99365.09
2019-03-09T07:18:41.210Z,99359.77
2019-03-09T07:19:43.411Z,99368.89
2019-03-09T07:20:45.610Z,99364.98
2019-03-09T07:21:47.856Z,99352.46
2019-03-09T07:22:50.048Z,99366.69
2019-03-09T07:23:53.767Z,99365.38
2019-03-09T07:24:56.073Z,99359.77
2019-03-09T07:25:58.272Z,99371.50
2019-03-09T07:27:00.574Z,99372.80
2019-03-09T07:28:02.760Z,99362.78
2019-03-09T07:29:04.988Z,99366.28
2019-03-09T07:30:07.194Z,99373.31
2019-03-09T07:31:09.505Z,99366.80
2019-03-09T07:32:11.704Z,99362.88
2019-03-09T07:33:13.918Z,99366.39
2019-03-09T07:34:16.126Z,99365.49
2019-03-09T07:35:18.315Z,99362.48
2019-03-09T07:36:20.513Z,99365.49
2019-03-09T07:37:22.718Z,99367.70
2019-03-09T07:38:24.938Z,99371.20
2019-03-09T07:39:27.149Z,99369.11
2019-03-09T07:40:29.355Z,99362.20
2019-03-09T07:41:31.611Z,99372.22
2019-03-09T07:42:33.804Z,99370.41
2019-03-09T07:43:36.025Z,99371.86
2019-03-09T07:44:38.246Z,99375.37
2019-03-09T07:45:40.470Z,99383.19
2019-03-09T07:46:42.656Z,99379.68
2019-03-09T07:47:44.846Z,99371.46
2019-03-09T07:48:47.073Z,99388.41
2019-03-09T07:49:49.405Z,99370.55
2019-03-09T07:50:51.607Z,99376.28
2019-03-09T07:51:53.815Z,99376.38
2019-03-09T07:52:56.030Z,99379.39
2019-03-09T07:53:58.245Z,99372.08
2019-03-09T07:55:00.479Z,99376.48
2019-03-09T07:56:02.392Z,99379.20
2019-03-09T07:57:04.616Z,99387.45
2019-03-09T07:58:06.848Z,99387.72
2019-03-09T07:59:09.035Z,99382.09
2019-03-09T08:00:11.264Z,99375.80
2019-03-09T08:01:13.467Z,99391.41
2019-03-09T08:02:15.692Z,99394.72
2019-03-09T08:03:17.887Z,99379.16
2019-03-09T08:04:20.111Z,99378.70
2019-03-09T08:05:22.363Z,99385.47
2019-03-09T08:06:24.565Z,99381.08
2019-03-09T08:07:26.774Z,99394.47
2019-03-09T08:08:28.987Z,99395.60
2019-03-09T08:09:31.183Z,99397.97
2019-03-09T08:10:33.410Z,99398.87
2019-03-09T08:11:35.630Z,99402.28
2019-03-09T08:12:37.844Z,99401.08
2019-03-09T08:13:40.282Z,99403.43
2019-03-09T08:14:42.600Z,99412.45
2019-03-09T08:15:44.822Z,99402.38
2019-03-09T08:16:47.058Z,99393.00
2019-03-09T08:17:49.284Z,99399.52
2019-03-09T08:18:51.544Z,99412.16
2019-03-09T08:19:53.770Z,99408.39
2019-03-09T08:20:55.968Z,99408.31
2019-03-09T08:21:58.198Z,99414.32
2019-03-09T08:23:01.871Z,99415.52
2019-03-09T08:24:04.043Z,99417.12
2019-03-09T08:25:06.256Z,99411.52
2019-03-09T08:26:08.461Z,99423.03
2019-03-09T08:27:10.784Z,99411.59
2019-03-09T08:28:12.984Z,99417.09
2019-03-09T08:29:16.087Z,99407.36
2019-03-09T08:30:18.329Z,99424.70
2019-03-09T08:31:20.522Z,99418.84
2019-03-09T08:32:22.737Z,99417.43
2019-03-09T08:33:26.148Z,99413.41
2019-03-09T08:34:28.395Z,99412.91
2019-03-09T08:35:30.583Z,99402.88
2019-03-09T08:36:35.963Z,99423.23
2019-03-09T08:37:38.165Z,99407.08
2019-03-09T08:38:40.375Z,99408.27
2019-03-09T08:39:42.613Z,99424.31
2019-03-09T08:40:46.741Z,99416.89
2019-03-09T08:41:48.929Z,99418.09
2019-03-09T08:42:51.135Z,99407.26
2019-03-09T08:43:53.333Z,99422.50
2019-03-09T08:44:55.579Z,99413.78
2019-03-09T08:45:57.828Z,99417.58
2019-03-09T08:47:00.083Z,99417.98
2019-03-09T08:48:02.297Z,99415.73
2019-03-09T08:49:04.523Z,99433.98
2019-03-09T08:50:06.735Z,99418.34
2019-03-09T08:51:08.980Z,99419.28
2019-03-09T08:52:11.155Z,99415.38
2019-03-09T08:53:13.356Z,99416.13
2019-03-09T08:54:15.544Z,99432.68
2019-03-09T08:55:18.212Z,99427.47
2019-03-09T08:56:21.903Z,99429.86
2019-03-09T08:57:24.155Z,99435.07
2019-03-09T08:58:26.315Z,99423.23
2019-03-09T08:59:28.536Z,99433.77
2019-03-09T09:00:30.913Z,99430.87
2019-03-09T09:01:33.104Z,99430.47
2019-03-09T09:02:35.283Z,99439.48
2019-03-09T09:03:37.488Z,99443.29
2019-03-09T09:04:39.699Z,99436.44
2019-03-09T09:05:41.928Z,99439.05
2019-03-09T09:06:44.113Z,99444.66
2019-03-09T09:07:46.343Z,99445.45
2019-03-09T09:08:48.546Z,99446.25
2019-03-09T09:09:50.747Z,99438.32
2019-03-09T09:10:52.998Z,99455.52
2019-03-09T09:11:57.536Z,99445.48
2019-03-09T09:12:59.766Z,99455.13
2019-03-09T09:14:02.073Z,99450.81
2019-03-09T09:15:04.402Z,99470.61
2019-03-09T09:16:06.641Z,99440.13
2019-03-09T09:17:08.842Z,99447.45
2019-03-09T09:18:11.062Z,99455.88
2019-03-09T09:19:13.280Z,99467.44
2019-03-09T09:20:15.495Z,99462.11
2019-03-09T09:21:17.732Z,99457.80
2019-03-09T09:22:19.948Z,99474.64
2019-03-09T09:23:22.192Z,99479.45
2019-03-09T09:24:24.443Z,99478.55
2019-03-09T09:25:26.612Z,99489.27
2019-03-09T09:26:28.832Z,99478.15
2019-03-09T09:27:31.042Z,99485.06
2019-03-09T09:28:33.251Z,99486.08
2019-03-09T09:29:35.464Z,99484.78
2019-03-09T09:30:39.642Z,99484.89
2019-03-09T09:31:41.880Z,99474.86
2019-03-09T09:32:44.093Z,99478.15
2019-03-09T09:33:46.307Z,99495.20
2019-03-09T09:34:48.500Z,99480.87
2019-03-09T09:35:50.719Z,99488.86
2019-03-09T09:36:52.973Z,99485.97
2019-03-09T09:37:55.249Z,99528.47
2019-03-09T09:38:57.450Z,99503.20
2019-03-09T09:39:59.782Z,99505.52
2019-03-09T09:41:03.012Z,99504.22
2019-03-09T09:42:05.230Z,99503.31
2019-03-09T09:43:07.433Z,99508.52
2019-03-09T09:44:09.659Z,99519.34
2019-03-09T09:45:11.863Z,99516.85
2019-03-09T09:46:14.073Z,99509.83
2019-03-09T09:47:16.317Z,99514.53
2019-03-09T09:48:18.573Z,99504.22
2019-03-09T09:49:20.773Z,99507.22
2019-03-09T09:50:22.980Z,99508.63
2019-03-09T09:51:25.208Z,99508.75
2019-03-09T09:52:27.458Z,99524.78
2019-03-09T09:53:29.752Z,99509.42
2019-03-09T09:54:31.955Z,99530.68
2019-03-09T09:55:34.280Z,99521.84
2019-03-09T09:56:36.492Z,99524.05
2019-03-09T09:57:38.726Z,99526.66
2019-03-09T09:58:40.935Z,99542.70
2019-03-09T09:59:43.166Z,99522.35
2019-03-09T10:00:45.393Z,99539.41
2019-03-09T10:01:47.591Z,99548.53
2019-03-09T10:02:49.866Z,99551.64
2019-03-09T10:03:52.080Z,99532.09
2019-03-09T10:04:54.292Z,99543.43
2019-03-09T10:05:56.498Z,99536.41
2019-03-09T10:06:58.700Z,99557.14
2019-03-09T10:08:00.932Z,99557.37
2019-03-09T10:09:04.260Z,99555.55
2019-03-09T10:10:06.648Z,99559.58
2019-03-09T10:11:08.856Z,99560.99
2019-03-09T10:12:11.090Z,99559.41
2019-03-09T10:13:13.322Z,99558.21
2019-03-09T10:14:15.540Z,99561.10
2019-03-09T10:15:17.749Z,99575.95
2019-03-09T10:16:19.959Z,99583.38
2019-03-09T10:17:22.136Z,99597.20
2019-03-09T10:18:25.471Z,99571.53
2019-03-09T10:19:27.678Z,99571.42
2019-03-09T10:20:29.887Z,99571.59
2019-03-09T10:21:32.091Z,99588.53
2019-03-09T10:22:34.309Z,99572.50
2019-03-09T10:23:36.528Z,99576.92
2019-03-09T10:24:38.818Z,99586.44
2019-03-09T10:25:41.010Z,99583.04
2019-03-09T10:26:43.222Z,99582.75
2019-03-09T10:27:45.410Z,99591.25
2019-03-09T10:28:47.641Z,99590.18
2019-03-09T10:29:49.780Z,99567.11
2019-03-09T10:30:51.992Z,99574.65
2019-03-09T10:31:54.190Z,99588.98
2019-03-09T10:32:56.397Z,99585.19
2019-03-09T10:33:58.609Z,99583.52
2019-03-09T10:35:00.812Z,99587.55
2019-03-09T10:36:03.015Z,99587.15
2019-03-09T10:37:05.218Z,99582.67
2019-03-09T10:38:07.432Z,99589.47
2019-03-09T10:39:09.659Z,99578.64
2019-03-09T10:40:11.878Z,99600.41
2019-03-09T10:41:14.074Z,99595.93
2019-03-09T10:42:16.275Z,99592.13
2019-03-09T10:43:18.669Z,99597.91
2019-03-09T10:44:20.872Z,99598.99
2019-03-09T10:45:23.103Z,99606.98
2019-03-09T10:46:25.315Z,99591.48
2019-03-09T10:47:29.055Z,99588.48
2019-03-09T10:48:31.292Z,99604.41
2019-03-09T10:49:33.504Z,99605.08
2019-03-09T10:50:35.717Z,99617.33
2019-03-09T10:51:37.931Z,99616.25
2019-03-09T10:52:40.151Z,99621.17
2019-03-09T10:53:42.387Z,99618.97
2019-03-09T10:54:44.701Z,99612.14
2019-03-09T10:55:46.962Z,99636.20
2019-03-09T10:56:49.175Z,99628.62
2019-03-09T10:57:51.405Z,99629.91
2019-03-09T10:58:53.623Z,99634.66
2019-03-09T10:59:55.843Z,99622.70
2019-03-09T11:00:58.164Z,99627.98
2019-03-09T11:02:00.377Z,99637.94
2019-03-09T11:03:02.603Z,99626.42
2019-03-09T11:04:04.842Z,99628.61
2019-03-09T11:05:07.089Z,99643.97
2019-03-09T11:06:09.307Z,99641.59
2019-03-09T11:07:11.531Z,99638.88
2019-03-09T11:08:13.658Z,99634.84
2019-03-09T11:09:15.950Z,99629.13
2019-03-09T11:10:18.161Z,99653.44
2019-03-09T11:11:23.172Z,99652.81
2019-03-09T11:12:25.387Z,99642.27
2019-03-09T11:13:27.604Z,99659.34
2019-03-09T11:14:29.793Z,99642.05
2019-03-09T11:15:32.017Z,99643.86
2019-03-09T11:16:34.238Z,99641.56
2019-03-09T11:17:36.461Z,99635.33
2019-03-09T11:18:40.239Z,99635.72
2019-03-09T11:19:42.474Z,99645.53
2019-03-09T11:20:44.680Z,99624.67
2019-03-09T11:21:46.887Z,99643.55
2019-03-09T11:22:49.102Z,99635.16
2019-03-09T11:23:51.341Z,99648.30
2019-03-09T11:25:03.169Z,99650.27
2019-03-09T11:25:57.516Z,99653.89
2019-03-09T11:26:59.759Z,99663.76
2019-03-09T11:28:01.968Z,99668.80
2019-03-09T11:29:04.183Z,99663.47
2019-03-09T11:30:06.491Z,99661.66
2019-03-09T11:31:08.705Z,99660.87
2019-03-09T11:32:10.963Z,99655.66
2019-03-09T11:33:15.644Z,99665.69
2019-03-09T11:34:17.880Z,99666.08
2019-03-09T11:35:20.109Z,99662.28
2019-03-09T11:36:22.322Z,99665.17
2019-03-09T11:37:24.529Z,99674.17
2019-03-09T11:38:26.803Z,99652.77
2019-03-09T11:39:29.013Z,99653.56
2019-03-09T11:40:34.274Z,99656.39
2019-03-09T11:41:36.491Z,99656.80
2019-03-09T11:42:38.698Z,99655.59
2019-03-09T11:43:40.907Z,99658.32
2019-03-09T11:44:43.188Z,99656.11
2019-03-09T11:45:45.463Z,99654.52
2019-03-09T11:46:47.745Z,99645.90
2019-03-09T11:47:49.955Z,99649.67
2019-03-09T11:48:52.167Z,99675.65
2019-03-09T11:49:54.383Z,99645.39
2019-03-09T11:50:56.610Z,99676.47
2019-03-09T11:51:58.833Z,99674.77
2019-03-09T11:53:01.037Z,99672.44
2019-03-09T11:54:03.281Z,99669.04
2019-03-09T11:55:05.497Z,99666.72
2019-03-09T11:56:07.737Z,99671.82
2019-03-09T11:57:09.959Z,99682.25
2019-03-09T11:58:12.180Z,99668.31
2019-03-09T11:59:14.385Z,99652.11
2019-03-09T12:00:19.682Z,99679.50
2019-03-09T12:01:21.925Z,99651.75
2019-03-09T12:02:24.131Z,99643.86
2019-03-09T12:03:26.348Z,99647.77
2019-03-09T12:04:28.561Z,99647.16
2019-03-09T12:05:30.798Z,99645.85
2019-03-09T12:06:33.028Z,99656.68
2019-03-09T12:07:35.239Z,99646.25
2019-03-09T12:08:37.457Z,99643.52
2019-03-09T12:09:39.677Z,99646.78
2019-03-09T12:10:41.880Z,99646.38
2019-03-09T12:11:44.112Z,99640.11
2019-03-09T12:12:46.328Z,99655.37